Station Historical Data
Daily Summary for May 17, 2012 Units:  English    Metric   Both
« Previous Day
Next Day »
Daily Weekly Monthly Yearly Custom
  High: Low: Average:
Temperature: 84.0 °F 57.4 °F 70.2 °F
Dew Point: 67.0 °F 53.3 °F 58.7 °F
Humidity: 90% 41% 70%
Wind Speed: 13.0mph 0.0mph 1.4mph
Wind Gust: 15.0mph - -
Wind- - SSE
Pressure: 29.96 in 29.89 in -
Precipitation: 0.48 in    
Historical Graphs
 
 
Tabular Data for May 17, 2012
Time Temperature Dew Point Pressure Wind Wind Speed Wind Gust Humidity Rainfall Rate (Hourly) Conditions
00:00 62.5 °F 56.6 °F 29.93 in Calm     81% 0.00 in
00:01 62.5 °F 56.6 °F 29.93 in Calm     81% 0.00 in
00:06 62.5 °F 56.9 °F 29.93 in Calm     82% 0.00 in
00:11 62.6 °F 56.7 °F 29.93 in Calm     81% 0.00 in
00:16 62.8 °F 56.9 °F 29.93 in Calm     81% 0.00 in
00:21 62.7 °F 56.5 °F 29.93 in Calm     80% 0.00 in
00:26 62.9 °F 55.9 °F 29.93 in Calm     78% 0.00 in
00:31 62.9 °F 55.6 °F 29.93 in Calm     77% 0.00 in
00:36 62.5 °F 55.6 °F 29.93 in Calm     78% 0.00 in
00:41 62.4 °F 56.8 °F 29.93 in Calm     82% 0.00 in
00:46 62.2 °F 57.3 °F 29.93 in Calm     84% 0.00 in
00:51 62.0 °F 57.1 °F 29.93 in WNW 1.0 mph 1.0 mph 84% 0.00 in
00:56 61.8 °F 57.2 °F 29.93 in Calm     85% 0.00 in
01:01 61.2 °F 57.3 °F 29.93 in Calm     87% 0.00 in
01:06 60.7 °F 57.1 °F 29.93 in Calm     88% 0.00 in
01:11 60.3 °F 56.7 °F 29.93 in Calm     88% 0.00 in
01:16 60.1 °F 56.5 °F 29.93 in Calm     88% 0.00 in
01:21 59.8 °F 56.6 °F 29.93 in Calm     89% 0.00 in
01:26 59.6 °F 56.7 °F 29.93 in Calm     90% 0.00 in
01:31 59.6 °F 56.4 °F 29.93 in Calm     89% 0.00 in
01:36 59.7 °F 56.5 °F 29.93 in Calm     89% 0.00 in
01:41 59.6 °F 56.0 °F 29.92 in Calm     88% 0.00 in
01:46 59.8 °F 56.2 °F 29.93 in Calm     88% 0.00 in
01:51 59.9 °F 56.0 °F 29.92 in Calm     87% 0.00 in
01:56 59.7 °F 55.8 °F 29.92 in Calm     87% 0.00 in
02:01 59.5 °F 55.6 °F 29.92 in Calm     87% 0.00 in
02:06 59.6 °F 55.7 °F 29.92 in Calm     87% 0.00 in
02:11 60.1 °F 56.5 °F 29.92 in Calm     88% 0.00 in
02:16 60.3 °F 56.7 °F 29.92 in Calm     88% 0.00 in
02:22 60.1 °F 56.5 °F 29.92 in Calm   1.0 mph 88% 0.00 in
02:27 59.9 °F 56.0 °F 29.92 in Calm     87% 0.00 in
02:32 59.8 °F 55.6 °F 29.92 in Calm     86% 0.00 in
02:37 60.1 °F 55.9 °F 29.92 in Calm     86% 0.00 in
02:42 60.1 °F 55.3 °F 29.92 in Calm     84% 0.00 in
02:47 60.2 °F 55.3 °F 29.92 in Calm     84% 0.00 in
02:52 60.3 °F 55.5 °F 29.91 in Calm     84% 0.00 in
02:57 60.3 °F 55.5 °F 29.92 in Calm     84% 0.00 in
03:02 60.3 °F 54.8 °F 29.92 in Calm     82% 0.00 in
03:07 60.3 °F 55.1 °F 29.92 in Calm     83% 0.00 in
03:12 60.4 °F 55.2 °F 29.92 in Calm     83% 0.00 in
03:17 60.3 °F 54.8 °F 29.92 in Calm     82% 0.00 in
03:22 60.0 °F 54.5 °F 29.92 in Calm     82% 0.00 in
03:27 60.0 °F 55.2 °F 29.92 in Calm     84% 0.00 in
03:32 59.9 °F 54.7 °F 29.92 in Calm     83% 0.00 in
03:37 59.9 °F 55.7 °F 29.92 in Calm   1.0 mph 86% 0.00 in
03:42 59.7 °F 55.2 °F 29.92 in Calm     85% 0.00 in
03:47 59.5 °F 54.7 °F 29.92 in Calm     84% 0.00 in
03:52 59.3 °F 54.5 °F 29.92 in Calm     84% 0.00 in
03:57 59.1 °F 54.0 °F 29.92 in Calm     83% 0.00 in
04:02 59.4 °F 53.9 °F 29.92 in Calm     82% 0.00 in
04:07 60.7 °F 54.5 °F 29.92 in WNW 1.0 mph 1.0 mph 80% 0.00 in
04:12 62.3 °F 54.7 °F 29.92 in WNW 1.0 mph 1.0 mph 76% 0.00 in
04:17 62.8 °F 54.4 °F 29.92 in Calm     74% 0.00 in
04:22 62.5 °F 54.5 °F 29.92 in Calm     75% 0.00 in
04:27 61.8 °F 54.5 °F 29.92 in WNW 1.0 mph 1.0 mph 77% 0.00 in
04:32 61.1 °F 55.6 °F 29.92 in Calm   1.0 mph 82% 0.00 in
04:37 60.3 °F 55.5 °F 29.92 in NNW 1.0 mph 1.0 mph 84% 0.00 in
04:42 59.6 °F 55.1 °F 29.92 in Calm     85% 0.00 in
04:47 59.1 °F 54.9 °F 29.93 in Calm     86% 0.00 in
04:53 59.0 °F 54.8 °F 29.93 in Calm     86% 0.00 in
04:58 58.7 °F 54.5 °F 29.93 in Calm     86% 0.00 in
05:03 58.4 °F 54.2 °F 29.93 in Calm     86% 0.00 in
05:08 57.9 °F 53.7 °F 29.93 in Calm     86% 0.00 in
05:13 57.8 °F 53.7 °F 29.93 in Calm     86% 0.00 in
05:18 57.8 °F 54.0 °F 29.93 in Calm   1.0 mph 87% 0.00 in
05:23 58.2 °F 54.4 °F 29.93 in Calm   1.0 mph 87% 0.00 in
05:28 58.3 °F 54.1 °F 29.93 in Calm   1.0 mph 86% 0.00 in
05:33 58.3 °F 54.5 °F 29.93 in Calm     87% 0.00 in
05:38 58.4 °F 54.2 °F 29.93 in Calm     86% 0.00 in
05:43 58.1 °F 53.9 °F 29.93 in Calm     86% 0.00 in
05:48 58.0 °F 53.8 °F 29.93 in Calm     86% 0.00 in
05:53 57.8 °F 53.7 °F 29.93 in Calm     86% 0.00 in
05:58 57.6 °F 53.5 °F 29.93 in Calm     86% 0.00 in
06:03 57.8 °F 53.3 °F 29.93 in Calm     85% 0.00 in
06:08 58.2 °F 53.7 °F 29.93 in Calm     85% 0.00 in
06:13 58.5 °F 54.0 °F 29.93 in Calm     85% 0.00 in
06:18 58.6 °F 54.1 °F 29.93 in Calm     85% 0.00 in
06:23 58.4 °F 54.5 °F 29.93 in NNW 1.0 mph 2.0 mph 87% 0.00 in
06:29 57.7 °F 54.2 °F 29.93 in NNW 1.0 mph 2.0 mph 88% 0.00 in
06:34 57.4 °F 54.2 °F 29.93 in Calm   1.0 mph 89% 0.00 in
06:39 57.4 °F 54.2 °F 29.93 in Calm     89% 0.00 in
06:44 57.5 °F 54.0 °F 29.93 in Calm     88% 0.00 in
06:49 57.7 °F 54.2 °F 29.93 in Calm     88% 0.00 in
06:54 58.1 °F 53.9 °F 29.94 in Calm     86% 0.00 in
06:55 58.1 °F 53.9 °F 29.94 in Calm     86% 0.00 in
07:00 58.3 °F 53.8 °F 29.94 in Calm     85% 0.00 in
07:05 58.7 °F 54.2 °F 29.94 in Calm     85% 0.00 in
07:10 59.2 °F 54.4 °F 29.94 in Calm     84% 0.00 in
07:15 59.3 °F 54.5 °F 29.94 in Calm     84% 0.00 in
07:20 59.4 °F 54.6 °F 29.94 in Calm     84% 0.00 in
07:25 59.7 °F 54.5 °F 29.94 in Calm     83% 0.00 in
07:30 60.7 °F 55.5 °F 29.94 in Calm     83% 0.00 in
07:35 61.9 °F 56.0 °F 29.94 in Calm     81% 0.00 in
07:40 63.1 °F 56.5 °F 29.95 in Calm     79% 0.00 in
07:45 63.9 °F 57.3 °F 29.95 in Calm     79% 0.00 in
07:50 64.5 °F 57.5 °F 29.95 in Calm     78% 0.00 in
07:55 65.0 °F 58.0 °F 29.95 in Calm     78% 0.00 in
08:00 65.4 °F 58.4 °F 29.95 in Calm     78% 0.00 in
08:05 65.8 °F 58.0 °F 29.95 in Calm   1.0 mph 76% 0.00 in
08:10 66.4 °F 59.0 °F 29.95 in Calm   1.0 mph 77% 0.00 in
08:15 67.0 °F 59.2 °F 29.95 in Calm   1.0 mph 76% 0.00 in
08:20 67.7 °F 59.1 °F 29.95 in Calm   1.0 mph 74% 0.00 in
08:25 68.3 °F 59.7 °F 29.96 in NNW 1.0 mph 1.0 mph 74% 0.00 in
08:30 68.2 °F 60.3 °F 29.96 in NNW 1.0 mph 1.0 mph 76% 0.00 in
08:35 68.2 °F 60.0 °F 29.96 in Calm   1.0 mph 75% 0.00 in
08:40 68.7 °F 61.2 °F 29.96 in Calm   1.0 mph 77% 0.00 in
08:45 69.0 °F 60.4 °F 29.96 in NW 2.0 mph 2.0 mph 74% 0.00 in
08:50 69.1 °F 60.1 °F 29.96 in WNW 2.0 mph 2.0 mph 73% 0.00 in
08:55 69.4 °F 60.8 °F 29.95 in WNW 1.0 mph 3.0 mph 74% 0.00 in
09:00 70.0 °F 61.0 °F 29.96 in NW 2.0 mph 2.0 mph 73% 0.00 in
09:05 70.5 °F 61.0 °F 29.96 in WNW 1.0 mph 2.0 mph 72% 0.00 in
09:10 70.9 °F 60.2 °F 29.96 in West 2.0 mph 4.0 mph 69% 0.00 in
09:15 71.4 °F 61.1 °F 29.96 in WNW 1.0 mph 2.0 mph 70% 0.00 in
09:20 71.9 °F 61.2 °F 29.96 in WNW 3.0 mph 3.0 mph 69% 0.00 in
09:26 72.3 °F 60.7 °F 29.96 in WNW 2.0 mph 4.0 mph 67% 0.00 in
09:31 73.0 °F 61.4 °F 29.96 in Calm   1.0 mph 67% 0.00 in
09:36 73.6 °F 61.1 °F 29.96 in NW 2.0 mph 3.0 mph 65% 0.00 in
09:41 74.0 °F 59.7 °F 29.96 in NNW 3.0 mph 3.0 mph 61% 0.00 in
09:46 74.4 °F 59.2 °F 29.96 in NW 2.0 mph 3.0 mph 59% 0.00 in
09:51 74.8 °F 59.5 °F 29.96 in WNW 1.0 mph 3.0 mph 59% 0.00 in
09:56 75.3 °F 61.8 °F 29.95 in West 2.0 mph 3.0 mph 63% 0.00 in
10:01 75.7 °F 60.8 °F 29.96 in WNW 3.0 mph 3.0 mph 60% 0.00 in
10:06 75.8 °F 59.5 °F 29.96 in WNW 1.0 mph 4.0 mph 57% 0.00 in
10:11 75.9 °F 58.6 °F 29.96 in NW 3.0 mph 3.0 mph 55% 0.00 in
10:16 76.3 °F 59.0 °F 29.96 in Calm   3.0 mph 55% 0.00 in
10:21 77.0 °F 58.0 °F 29.96 in Calm   2.0 mph 52% 0.00 in
10:26 77.6 °F 58.1 °F 29.96 in NW 1.0 mph 2.0 mph 51% 0.00 in
10:31 78.2 °F 58.1 °F 29.96 in NNW 1.0 mph 4.0 mph 50% 0.00 in
10:36 78.4 °F 59.9 °F 29.96 in WNW 2.0 mph 5.0 mph 53% 0.00 in
10:41 78.4 °F 59.9 °F 29.96 in NW 2.0 mph 4.0 mph 53% 0.00 in
10:46 78.5 °F 58.3 °F 29.96 in WNW 2.0 mph 3.0 mph 50% 0.00 in
10:51 78.8 °F 58.6 °F 29.95 in Calm   2.0 mph 50% 0.00 in
10:56 79.3 °F 56.1 °F 29.95 in NE 2.0 mph 3.0 mph 45% 0.00 in
11:01 79.1 °F 57.2 °F 29.95 in NE 2.0 mph 4.0 mph 47% 0.00 in
11:06 79.3 °F 57.3 °F 29.95 in NW 1.0 mph 3.0 mph 47% 0.00 in
11:11 79.4 °F 56.8 °F 29.95 in NNE 2.0 mph 2.0 mph 46% 0.00 in
11:16 79.9 °F 59.0 °F 29.95 in NE 1.0 mph 2.0 mph 49% 0.00 in
11:22 79.7 °F 55.9 °F 29.95 in NNE 2.0 mph 4.0 mph 44% 0.00 in
11:27 80.0 °F 57.4 °F 29.95 in NNW 1.0 mph 4.0 mph 46% 0.00 in
11:32 80.1 °F 57.5 °F 29.95 in West 2.0 mph 4.0 mph 46% 0.00 in
11:37 80.2 °F 57.0 °F 29.95 in NNW 2.0 mph 3.0 mph 45% 0.00 in
11:42 80.5 °F 58.4 °F 29.95 in WNW 2.0 mph 3.0 mph 47% 0.00 in
11:47 80.5 °F 57.8 °F 29.95 in NW 2.0 mph 4.0 mph 46% 0.00 in
11:52 80.8 °F 58.1 °F 29.95 in NNE 3.0 mph 4.0 mph 46% 0.00 in
11:57 80.7 °F 58.6 °F 29.95 in NE 4.0 mph 7.0 mph 47% 0.00 in
12:02 80.2 °F 58.2 °F 29.95 in NE 5.0 mph 5.0 mph 47% 0.00 in
12:07 80.5 °F 59.0 °F 29.95 in ESE 2.0 mph 5.0 mph 48% 0.00 in
12:12 81.1 °F 59.0 °F 29.95 in ESE 1.0 mph 3.0 mph 47% 0.00 in
12:17 81.2 °F 58.5 °F 29.95 in NE 3.0 mph 5.0 mph 46% 0.00 in
12:22 81.1 °F 57.8 °F 29.95 in NW 4.0 mph 5.0 mph 45% 0.00 in
12:27 81.5 °F 59.9 °F 29.95 in East 1.0 mph 2.0 mph 48% 0.00 in
12:32 81.5 °F 58.8 °F 29.95 in NNE 4.0 mph 7.0 mph 46% 0.00 in
12:37 81.4 °F 58.7 °F 29.95 in East 7.0 mph 7.0 mph 46% 0.00 in
12:42 81.2 °F 57.9 °F 29.95 in NE 6.0 mph 6.0 mph 45% 0.00 in
12:44 81.2 °F 56.6 °F 29.95 in NE 4.0 mph 6.0 mph 43% 0.00 in
12:49 81.1 °F 59.6 °F 29.95 in ESE 5.0 mph 6.0 mph 48% 0.00 in
12:50 81.1 °F 57.2 °F 29.95 in East 3.0 mph 6.0 mph 44% 0.00 in
12:51 81.2 °F 57.9 °F 29.94 in SE 1.0 mph 6.0 mph 45% 0.00 in
12:56 81.7 °F 58.3 °F 29.94 in East 5.0 mph 10.0 mph 45% 0.00 in
12:59 81.8 °F 57.8 °F 29.94 in ESE 8.0 mph 8.0 mph 44% 0.00 in
13:00 81.7 °F 57.0 °F 29.94 in SE 4.0 mph 9.0 mph 43% 0.00 in
13:05 81.9 °F 59.1 °F 29.94 in SSE 6.0 mph 8.0 mph 46% 0.00 in
13:10 81.7 °F 57.0 °F 29.94 in South 2.0 mph 8.0 mph 43% 0.00 in
13:15 82.0 °F 56.7 °F 29.94 in Calm   2.0 mph 42% 0.00 in
13:20 82.7 °F 59.8 °F 29.94 in SW 2.0 mph 6.0 mph 46% 0.00 in
13:25 83.3 °F 59.1 °F 29.94 in ESE 3.0 mph 4.0 mph 44% 0.00 in
13:30 83.2 °F 57.8 °F 29.94 in ESE 3.0 mph 6.0 mph 42% 0.00 in
13:36 82.8 °F 58.0 °F 29.94 in East 3.0 mph 5.0 mph 43% 0.00 in
13:41 82.9 °F 56.8 °F 29.93 in ENE 3.0 mph 5.0 mph 41% 0.00 in
13:46 82.8 °F 59.3 °F 29.93 in SE 3.0 mph 9.0 mph 45% 0.00 in
13:51 82.8 °F 56.7 °F 29.93 in East 4.0 mph 7.0 mph 41% 0.00 in
13:56 82.5 °F 57.1 °F 29.93 in North 3.0 mph 8.0 mph 42% 0.00 in
14:01 82.7 °F 58.6 °F 29.93 in SSE 4.0 mph 7.0 mph 44% 0.00 in
14:06 83.2 °F 58.4 °F 29.93 in SSE 4.0 mph 8.0 mph 43% 0.00 in
14:11 83.3 °F 58.5 °F 29.92 in SSE 2.0 mph 8.0 mph 43% 0.00 in
14:16 83.6 °F 58.1 °F 29.92 in ESE 2.0 mph 11.0 mph 42% 0.00 in
14:21 83.0 °F 57.6 °F 29.92 in SE 3.0 mph 7.0 mph 42% 0.00 in
14:26 82.8 °F 57.4 °F 29.92 in ENE 4.0 mph 5.0 mph 42% 0.00 in
14:31 82.5 °F 57.1 °F 29.92 in NNE 3.0 mph 4.0 mph 42% 0.00 in
14:36 82.0 °F 58.0 °F 29.92 in East 1.0 mph 4.0 mph 44% 0.00 in
14:41 81.9 °F 59.1 °F 29.92 in SSE 2.0 mph 2.0 mph 46% 0.00 in
14:46 81.7 °F 57.7 °F 29.92 in East 1.0 mph 1.0 mph 44% 0.00 in
14:51 81.4 °F 58.7 °F 29.92 in NE 1.0 mph 3.0 mph 46% 0.00 in
14:56 81.2 °F 59.1 °F 29.92 in NE 2.0 mph 2.0 mph 47% 0.00 in
15:01 81.0 °F 58.9 °F 29.92 in ENE 3.0 mph 5.0 mph 47% 0.00 in
15:06 81.0 °F 58.3 °F 29.92 in ESE 1.0 mph 4.0 mph 46% 0.00 in
15:11 81.2 °F 60.2 °F 29.92 in SE 1.0 mph 2.0 mph 49% 0.00 in
15:16 81.4 °F 58.7 °F 29.92 in ESE 1.0 mph 2.0 mph 46% 0.00 in
15:21 81.6 °F 59.4 °F 29.92 in North 2.0 mph 2.0 mph 47% 0.00 in
15:26 81.7 °F 59.5 °F 29.92 in NNE 1.0 mph 2.0 mph 47% 0.00 in
15:32 82.0 °F 60.4 °F 29.91 in ESE 3.0 mph 5.0 mph 48% 0.00 in
15:37 82.4 °F 59.0 °F 29.91 in SSE 2.0 mph 5.0 mph 45% 0.00 in
15:42 82.3 °F 58.2 °F 29.91 in ESE 2.0 mph 2.0 mph 44% 0.00 in
15:47 82.2 °F 59.4 °F 29.91 in ESE 3.0 mph 6.0 mph 46% 0.00 in
15:52 81.9 °F 57.9 °F 29.91 in SE 1.0 mph 2.0 mph 44% 0.00 in
15:57 82.0 °F 58.6 °F 29.91 in Calm   1.0 mph 45% 0.00 in
16:02 82.1 °F 58.0 °F 29.91 in SE 2.0 mph 4.0 mph 44% 0.00 in
16:07 81.8 °F 56.5 °F 29.91 in SSE 2.0 mph 4.0 mph 42% 0.00 in
16:12 81.9 °F 58.5 °F 29.91 in SE 1.0 mph 2.0 mph 45% 0.00 in
16:17 81.7 °F 57.0 °F 29.90 in SSE 1.0 mph 4.0 mph 43% 0.00 in
16:22 81.8 °F 59.0 °F 29.90 in NE 3.0 mph 3.0 mph 46% 0.00 in
16:27 82.4 °F 58.3 °F 29.90 in ENE 1.0 mph 2.0 mph 44% 0.00 in
16:32 83.0 °F 58.2 °F 29.90 in SSE 2.0 mph 5.0 mph 43% 0.00 in
16:37 83.6 °F 60.0 °F 29.89 in East 6.0 mph 6.0 mph 45% 0.00 in
16:42 83.5 °F 58.0 °F 29.89 in SSE 3.0 mph 8.0 mph 42% 0.00 in
16:47 84.0 °F 57.8 °F 29.89 in SE 4.0 mph 4.0 mph 41% 0.00 in
16:52 83.8 °F 60.8 °F 29.89 in ESE 6.0 mph 7.0 mph 46% 0.00 in
16:57 83.9 °F 58.4 °F 29.89 in ESE 5.0 mph 5.0 mph 42% 0.00 in
17:02 83.7 °F 58.2 °F 29.89 in WNW 3.0 mph 4.0 mph 42% 0.00 in
17:07 83.2 °F 57.8 °F 29.89 in West 2.0 mph 4.0 mph 42% 0.00 in
17:12 82.5 °F 58.4 °F 29.89 in WSW 2.0 mph 3.0 mph 44% 0.00 in
17:17 81.9 °F 57.9 °F 29.89 in West 2.0 mph 3.0 mph 44% 0.00 in
17:22 81.5 °F 59.9 °F 29.89 in WNW 2.0 mph 2.0 mph 48% 0.00 in
17:27 80.6 °F 60.8 °F 29.89 in NNW 2.0 mph 4.0 mph 51% 0.00 in
17:32 79.6 °F 61.0 °F 29.89 in NNW 3.0 mph 3.0 mph 53% 0.00 in
17:37 78.3 °F 61.8 °F 29.90 in NW 6.0 mph 14.0 mph 57% 0.00 in
17:43 74.5 °F 62.0 °F 29.90 in NW 13.0 mph 15.0 mph 65% 0.00 in
17:47 73.0 °F 61.0 °F 29.91 in WNW 6.0 mph 12.0 mph 66% 0.98 in
17:53 71.2 °F 62.1 °F 29.91 in West 9.0 mph 10.0 mph 73% 2.24 in
17:58 71.3 °F 61.0 °F 29.91 in West 6.0 mph 10.0 mph 70% 2.52 in
18:03 71.8 °F 59.4 °F 29.90 in West 8.0 mph 12.0 mph 65% 0.42 in
18:08 70.5 °F 61.4 °F 29.90 in West 4.0 mph 7.0 mph 73% 0.09 in
18:13 70.7 °F 62.0 °F 29.90 in WSW 5.0 mph 8.0 mph 74% 0.09 in
18:18 71.1 °F 63.9 °F 29.90 in West 4.0 mph 6.0 mph 78% 0.06 in
18:23 71.9 °F 65.4 °F 29.90 in WNW 5.0 mph 5.0 mph 80% 0.04 in
18:28 72.5 °F 64.9 °F 29.90 in SSW 1.0 mph 4.0 mph 77% 0.00 in
18:33 72.7 °F 64.7 °F 29.90 in East 5.0 mph 5.0 mph 76% 0.00 in
18:38 72.2 °F 64.2 °F 29.90 in ESE 2.0 mph 3.0 mph 76% 0.00 in
18:43 72.2 °F 63.5 °F 29.89 in Calm   1.0 mph 74% 0.00 in
18:48 72.3 °F 64.3 °F 29.89 in East 1.0 mph 2.0 mph 76% 0.00 in
18:53 72.3 °F 64.7 °F 29.89 in Calm   1.0 mph 77% 0.00 in
18:58 72.3 °F 66.2 °F 29.89 in Calm   1.0 mph 81% 0.00 in
19:03 71.8 °F 64.9 °F 29.89 in Calm     79% 0.00 in
19:08 71.5 °F 66.4 °F 29.89 in Calm     84% 0.00 in
19:13 71.0 °F 66.6 °F 29.89 in East 1.0 mph 1.0 mph 86% 0.00 in
19:18 70.6 °F 66.9 °F 29.89 in NNW 1.0 mph 1.0 mph 88% 0.00 in
19:23 70.1 °F 67.0 °F 29.89 in NNW 1.0 mph 1.0 mph 90% 0.00 in
19:28 69.7 °F 66.6 °F 29.89 in Calm     90% 0.00 in
19:33 68.9 °F 65.8 °F 29.90 in NNE 2.0 mph 2.0 mph 90% 0.00 in
19:38 68.6 °F 63.9 °F 29.90 in NNE 2.0 mph 2.0 mph 85% 0.00 in
19:43 69.6 °F 64.9 °F 29.90 in NNW 2.0 mph 4.0 mph 85% 0.00 in
19:48 69.1 °F 64.4 °F 29.90 in Calm   2.0 mph 85% 0.00 in
19:53 69.0 °F 64.6 °F 29.90 in North 2.0 mph 2.0 mph 86% 0.00 in
19:58 68.8 °F 64.4 °F 29.89 in Calm     86% 0.00 in
20:03 69.0 °F 64.0 °F 29.89 in NNE 1.0 mph 1.0 mph 84% 0.00 in
20:08 69.5 °F 64.1 °F 29.89 in NNE 2.0 mph 2.0 mph 83% 0.00 in
20:13 69.9 °F 63.8 °F 29.89 in NE 2.0 mph 2.0 mph 81% 0.00 in
20:18 70.1 °F 63.3 °F 29.89 in NE 1.0 mph 1.0 mph 79% 0.00 in
20:23 70.2 °F 64.8 °F 29.89 in Calm     83% 0.00 in
20:28 69.7 °F 64.7 °F 29.89 in Calm     84% 0.00 in
20:33 69.3 °F 64.9 °F 29.90 in NNE 1.0 mph 1.0 mph 86% 0.00 in
20:38 68.7 °F 64.7 °F 29.90 in NNE 1.0 mph 1.0 mph 87% 0.00 in
20:43 68.1 °F 64.7 °F 29.90 in Calm   1.0 mph 89% 0.00 in
20:48 67.8 °F 64.8 °F 29.90 in Calm     90% 0.00 in
20:53 67.6 °F 64.6 °F 29.90 in NNE 1.0 mph 1.0 mph 90% 0.00 in
20:58 67.7 °F 64.0 °F 29.90 in NNE 1.0 mph 2.0 mph 88% 0.00 in
21:03 68.0 °F 64.0 °F 29.91 in NE 2.0 mph 4.0 mph 87% 0.00 in
21:08 68.2 °F 63.5 °F 29.91 in Calm   4.0 mph 85% 0.00 in
21:13 68.0 °F 63.7 °F 29.91 in WNW 1.0 mph 1.0 mph 86% 0.00 in
21:19 67.4 °F 63.4 °F 29.91 in Calm     87% 0.00 in
21:24 67.4 °F 63.7 °F 29.91 in NNE 1.0 mph 2.0 mph 88% 0.00 in
21:29 67.5 °F 63.2 °F 29.91 in NE 2.0 mph 3.0 mph 86% 0.00 in
21:34 68.0 °F 63.0 °F 29.91 in NE 2.0 mph 3.0 mph 84% 0.00 in
21:39 68.2 °F 62.8 °F 29.91 in North 1.0 mph 2.0 mph 83% 0.00 in
21:44 67.7 °F 62.7 °F 29.91 in Calm   2.0 mph 84% 0.00 in
21:49 67.2 °F 62.5 °F 29.91 in NE 1.0 mph 2.0 mph 85% 0.00 in
21:54 67.6 °F 62.6 °F 29.92 in NNE 3.0 mph 3.0 mph 84% 0.00 in
21:59 68.2 °F 62.5 °F 29.92 in Calm   3.0 mph 82% 0.00 in
22:04 68.2 °F 62.5 °F 29.92 in Calm   2.0 mph 82% 0.00 in
22:09 68.2 °F 62.2 °F 29.92 in NE 2.0 mph 3.0 mph 81% 0.00 in
22:14 68.6 °F 62.2 °F 29.92 in NE 1.0 mph 3.0 mph 80% 0.00 in
22:19 68.9 °F 62.1 °F 29.92 in NE 3.0 mph 3.0 mph 79% 0.00 in
22:24 69.0 °F 61.9 °F 29.92 in NE 2.0 mph 4.0 mph 78% 0.00 in
22:29 69.1 °F 61.6 °F 29.92 in NE 2.0 mph 3.0 mph 77% 0.00 in
22:34 69.2 °F 61.7 °F 29.92 in NE 1.0 mph 3.0 mph 77% 0.00 in
22:39 69.4 °F 61.5 °F 29.92 in NE 2.0 mph 3.0 mph 76% 0.00 in
22:44 69.5 °F 61.2 °F 29.92 in NE 2.0 mph 3.0 mph 75% 0.00 in
22:49 69.4 °F 61.1 °F 29.93 in NNE 1.0 mph 3.0 mph 75% 0.00 in
22:54 69.3 °F 61.0 °F 29.93 in NNE 1.0 mph 2.0 mph 75% 0.00 in
22:59 69.4 °F 61.1 °F 29.93 in NNE 2.0 mph 3.0 mph 75% 0.00 in
23:04 69.4 °F 60.8 °F 29.93 in NE 2.0 mph 2.0 mph 74% 0.00 in
23:09 69.4 °F 60.8 °F 29.93 in Calm   2.0 mph 74% 0.00 in
23:14 68.9 °F 60.7 °F 29.93 in Calm   1.0 mph 75% 0.00 in
23:19 68.6 °F 60.4 °F 29.93 in NE 1.0 mph 2.0 mph 75% 0.00 in
23:24 68.5 °F 60.3 °F 29.93 in NE 1.0 mph 1.0 mph 75% 0.00 in
23:29 68.4 °F 60.5 °F 29.93 in NE 1.0 mph 1.0 mph 76% 0.00 in
23:35 68.1 °F 60.3 °F 29.93 in NE 2.0 mph 2.0 mph 76% 0.00 in
23:40 68.6 °F 60.0 °F 29.93 in NE 1.0 mph 2.0 mph 74% 0.00 in
23:45 68.7 °F 60.1 °F 29.94 in NE 1.0 mph 1.0 mph 74% 0.00 in
23:50 68.5 °F 59.9 °F 29.93 in NE 1.0 mph 1.0 mph 74% 0.00 in
23:55 68.4 °F 60.2 °F 29.94 in NE 2.0 mph 2.0 mph 75% 0.00 in
Compliments of Weather Underground